sensor_id;sensor_type;location;lat;lon;timestamp;P1;durP1;ratioP1;P2;durP2;ratioP2
68910;SDS011;55953;51.650;-0.522;2024-02-21T00:00:22;10.70;;;1.40;;
68910;SDS011;55953;51.650;-0.522;2024-02-21T00:03:10;10.40;;;2.00;;
68910;SDS011;55953;51.650;-0.522;2024-02-21T00:05:38;11.30;;;1.90;;
68910;SDS011;55953;51.650;-0.522;2024-02-21T00:08:06;10.40;;;2.20;;
68910;SDS011;55953;51.650;-0.522;2024-02-21T00:10:34;9.00;;;2.40;;
68910;SDS011;55953;51.650;-0.522;2024-02-21T00:13:03;8.60;;;2.30;;
68910;SDS011;55953;51.650;-0.522;2024-02-21T00:15:31;9.90;;;2.00;;
68910;SDS011;55953;51.650;-0.522;2024-02-21T00:17:59;9.20;;;2.20;;
68910;SDS011;55953;51.650;-0.522;2024-02-21T00:20:27;13.20;;;2.10;;
68910;SDS011;55953;51.650;-0.522;2024-02-21T00:22:55;9.00;;;2.20;;
68910;SDS011;55953;51.650;-0.522;2024-02-21T00:25:23;8.40;;;1.90;;
68910;SDS011;55953;51.650;-0.522;2024-02-21T00:27:51;8.70;;;1.80;;
68910;SDS011;55953;51.650;-0.522;2024-02-21T00:30:19;9.30;;;2.00;;
68910;SDS011;55953;51.650;-0.522;2024-02-21T00:32:47;8.80;;;1.90;;
68910;SDS011;55953;51.650;-0.522;2024-02-21T00:35:15;8.80;;;1.80;;
68910;SDS011;55953;51.650;-0.522;2024-02-21T00:37:43;13.70;;;2.20;;
68910;SDS011;55953;51.650;-0.522;2024-02-21T00:40:11;7.00;;;1.70;;
68910;SDS011;55953;51.650;-0.522;2024-02-21T00:42:39;9.70;;;1.80;;
68910;SDS011;55953;51.650;-0.522;2024-02-21T00:45:08;11.10;;;2.00;;
68910;SDS011;55953;51.650;-0.522;2024-02-21T00:47:36;12.70;;;2.10;;
68910;SDS011;55953;51.650;-0.522;2024-02-21T00:50:04;7.80;;;1.80;;
68910;SDS011;55953;51.650;-0.522;2024-02-21T00:52:37;10.10;;;1.90;;
68910;SDS011;55953;51.650;-0.522;2024-02-21T00:55:05;9.40;;;1.70;;
68910;SDS011;55953;51.650;-0.522;2024-02-21T00:57:34;9.60;;;2.20;;
68910;SDS011;55953;51.650;-0.522;2024-02-21T01:00:05;10.90;;;1.90;;
68910;SDS011;55953;51.650;-0.522;2024-02-21T01:02:35;10.20;;;1.80;;
68910;SDS011;55953;51.650;-0.522;2024-02-21T01:05:04;11.50;;;2.00;;
68910;SDS011;55953;51.650;-0.522;2024-02-21T01:07:32;8.70;;;1.70;;
68910;SDS011;55953;51.650;-0.522;2024-02-21T01:10:00;8.60;;;2.00;;
68910;SDS011;55953;51.650;-0.522;2024-02-21T01:12:27;9.80;;;1.70;;
68910;SDS011;55953;51.650;-0.522;2024-02-21T01:14:55;9.10;;;1.70;;
68910;SDS011;55953;51.650;-0.522;2024-02-21T01:17:24;9.80;;;1.60;;
68910;SDS011;55953;51.650;-0.522;2024-02-21T01:19:52;10.90;;;1.90;;
68910;SDS011;55953;51.650;-0.522;2024-02-21T01:22:19;10.50;;;1.70;;
68910;SDS011;55953;51.650;-0.522;2024-02-21T01:24:47;10.10;;;1.90;;
68910;SDS011;55953;51.650;-0.522;2024-02-21T01:27:15;7.80;;;1.40;;
68910;SDS011;55953;51.650;-0.522;2024-02-21T01:29:44;9.90;;;1.50;;
68910;SDS011;55953;51.650;-0.522;2024-02-21T01:32:14;11.40;;;1.90;;
68910;SDS011;55953;51.650;-0.522;2024-02-21T01:34:42;11.20;;;1.70;;
68910;SDS011;55953;51.650;-0.522;2024-02-21T01:37:10;8.90;;;1.60;;
68910;SDS011;55953;51.650;-0.522;2024-02-21T01:39:38;10.20;;;1.90;;
68910;SDS011;55953;51.650;-0.522;2024-02-21T01:42:05;10.70;;;2.00;;
68910;SDS011;55953;51.650;-0.522;2024-02-21T01:44:33;10.60;;;2.30;;
68910;SDS011;55953;51.650;-0.522;2024-02-21T01:47:01;10.10;;;2.40;;
68910;SDS011;55953;51.650;-0.522;2024-02-21T01:49:30;8.30;;;1.60;;
68910;SDS011;55953;51.650;-0.522;2024-02-21T01:51:58;14.20;;;2.70;;
68910;SDS011;55953;51.650;-0.522;2024-02-21T01:54:26;10.70;;;1.70;;
68910;SDS011;55953;51.650;-0.522;2024-02-21T01:56:56;9.70;;;2.10;;
68910;SDS011;55953;51.650;-0.522;2024-02-21T01:59:24;11.00;;;1.50;;
68910;SDS011;55953;51.650;-0.522;2024-02-21T02:01:53;14.30;;;1.80;;
68910;SDS011;55953;51.650;-0.522;2024-02-21T02:04:24;10.50;;;1.80;;
68910;SDS011;55953;51.650;-0.522;2024-02-21T02:06:54;10.10;;;2.00;;
68910;SDS011;55953;51.650;-0.522;2024-02-21T02:09:23;8.70;;;1.90;;
68910;SDS011;55953;51.650;-0.522;2024-02-21T02:11:51;10.40;;;1.90;;
68910;SDS011;55953;51.650;-0.522;2024-02-21T02:14:19;13.60;;;2.20;;
68910;SDS011;55953;51.650;-0.522;2024-02-21T02:16:47;7.50;;;1.70;;
68910;SDS011;55953;51.650;-0.522;2024-02-21T02:19:15;8.20;;;1.80;;
68910;SDS011;55953;51.650;-0.522;2024-02-21T02:21:46;10.80;;;1.90;;
68910;SDS011;55953;51.650;-0.522;2024-02-21T02:24:24;6.40;;;1.50;;
68910;SDS011;55953;51.650;-0.522;2024-02-21T02:26:53;9.30;;;1.50;;
68910;SDS011;55953;51.650;-0.522;2024-02-21T02:29:21;10.20;;;2.10;;
68910;SDS011;55953;51.650;-0.522;2024-02-21T02:31:49;8.90;;;1.80;;
68910;SDS011;55953;51.650;-0.522;2024-02-21T02:34:18;9.20;;;1.90;;
68910;SDS011;55953;51.650;-0.522;2024-02-21T02:36:45;10.40;;;2.10;;
68910;SDS011;55953;51.650;-0.522;2024-02-21T02:39:16;9.30;;;1.70;;
68910;SDS011;55953;51.650;-0.522;2024-02-21T02:41:44;9.90;;;2.00;;
68910;SDS011;55953;51.650;-0.522;2024-02-21T02:44:12;7.80;;;2.20;;
68910;SDS011;55953;51.650;-0.522;2024-02-21T02:46:40;10.40;;;1.60;;
68910;SDS011;55953;51.650;-0.522;2024-02-21T02:49:09;9.10;;;2.00;;
68910;SDS011;55953;51.650;-0.522;2024-02-21T02:51:41;13.50;;;2.00;;
68910;SDS011;55953;51.650;-0.522;2024-02-21T02:54:11;9.00;;;2.10;;
68910;SDS011;55953;51.650;-0.522;2024-02-21T02:56:39;12.90;;;2.10;;
68910;SDS011;55953;51.650;-0.522;2024-02-21T02:59:07;9.00;;;2.10;;
68910;SDS011;55953;51.650;-0.522;2024-02-21T03:01:35;11.90;;;2.20;;
68910;SDS011;55953;51.650;-0.522;2024-02-21T03:04:03;9.30;;;2.10;;
68910;SDS011;55953;51.650;-0.522;2024-02-21T03:06:31;8.20;;;2.00;;
68910;SDS011;55953;51.650;-0.522;2024-02-21T03:08:59;10.00;;;2.30;;
68910;SDS011;55953;51.650;-0.522;2024-02-21T03:11:27;11.30;;;2.40;;
68910;SDS011;55953;51.650;-0.522;2024-02-21T03:13:57;8.20;;;1.90;;
68910;SDS011;55953;51.650;-0.522;2024-02-21T03:16:25;12.80;;;1.90;;
68910;SDS011;55953;51.650;-0.522;2024-02-21T03:18:53;8.70;;;2.10;;
68910;SDS011;55953;51.650;-0.522;2024-02-21T03:21:22;9.30;;;2.30;;
68910;SDS011;55953;51.650;-0.522;2024-02-21T03:23:49;13.20;;;2.00;;
68910;SDS011;55953;51.650;-0.522;2024-02-21T03:26:17;12.60;;;2.30;;
68910;SDS011;55953;51.650;-0.522;2024-02-21T03:28:45;7.10;;;1.90;;
68910;SDS011;55953;51.650;-0.522;2024-02-21T03:31:14;10.20;;;1.70;;
68910;SDS011;55953;51.650;-0.522;2024-02-21T03:33:42;7.20;;;1.60;;
68910;SDS011;55953;51.650;-0.522;2024-02-21T03:36:14;10.00;;;1.90;;
68910;SDS011;55953;51.650;-0.522;2024-02-21T03:38:43;9.10;;;2.00;;
68910;SDS011;55953;51.650;-0.522;2024-02-21T03:41:11;9.00;;;2.60;;
68910;SDS011;55953;51.650;-0.522;2024-02-21T03:43:39;6.70;;;1.50;;
68910;SDS011;55953;51.650;-0.522;2024-02-21T03:46:08;8.30;;;1.70;;
68910;SDS011;55953;51.650;-0.522;2024-02-21T03:48:36;9.30;;;1.80;;
68910;SDS011;55953;51.650;-0.522;2024-02-21T03:51:04;8.30;;;1.60;;
68910;SDS011;55953;51.650;-0.522;2024-02-21T03:53:32;7.80;;;1.80;;
68910;SDS011;55953;51.650;-0.522;2024-02-21T03:56:01;7.90;;;1.60;;
68910;SDS011;55953;51.650;-0.522;2024-02-21T03:58:31;7.30;;;1.80;;
68910;SDS011;55953;51.650;-0.522;2024-02-21T04:01:00;7.70;;;1.50;;
68910;SDS011;55953;51.650;-0.522;2024-02-21T04:03:30;9.40;;;2.00;;
68910;SDS011;55953;51.650;-0.522;2024-02-21T04:05:58;8.60;;;1.80;;
68910;SDS011;55953;51.650;-0.522;2024-02-21T04:08:26;7.30;;;1.80;;
68910;SDS011;55953;51.650;-0.522;2024-02-21T04:10:54;8.40;;;2.00;;
68910;SDS011;55953;51.650;-0.522;2024-02-21T04:13:22;7.60;;;1.80;;
68910;SDS011;55953;51.650;-0.522;2024-02-21T04:15:50;10.90;;;2.00;;
68910;SDS011;55953;51.650;-0.522;2024-02-21T04:18:19;9.60;;;2.10;;
68910;SDS011;55953;51.650;-0.522;2024-02-21T04:20:47;10.00;;;2.20;;
68910;SDS011;55953;51.650;-0.522;2024-02-21T04:23:14;13.40;;;2.00;;
68910;SDS011;55953;51.650;-0.522;2024-02-21T04:25:42;8.00;;;1.90;;
68910;SDS011;55953;51.650;-0.522;2024-02-21T04:28:10;8.00;;;1.90;;
68910;SDS011;55953;51.650;-0.522;2024-02-21T04:30:38;5.20;;;1.90;;
68910;SDS011;55953;51.650;-0.522;2024-02-21T04:33:06;11.10;;;2.00;;
68910;SDS011;55953;51.650;-0.522;2024-02-21T04:35:36;8.70;;;1.70;;
68910;SDS011;55953;51.650;-0.522;2024-02-21T04:38:05;10.80;;;2.80;;
68910;SDS011;55953;51.650;-0.522;2024-02-21T04:40:33;8.60;;;1.90;;
68910;SDS011;55953;51.650;-0.522;2024-02-21T04:43:01;8.40;;;1.90;;
68910;SDS011;55953;51.650;-0.522;2024-02-21T04:45:29;4.80;;;1.50;;
68910;SDS011;55953;51.650;-0.522;2024-02-21T04:47:57;10.50;;;2.10;;
68910;SDS011;55953;51.650;-0.522;2024-02-21T04:50:25;6.70;;;2.00;;
68910;SDS011;55953;51.650;-0.522;2024-02-21T04:52:53;8.20;;;1.70;;
68910;SDS011;55953;51.650;-0.522;2024-02-21T04:55:21;9.40;;;1.90;;
68910;SDS011;55953;51.650;-0.522;2024-02-21T04:57:49;8.60;;;2.30;;
68910;SDS011;55953;51.650;-0.522;2024-02-21T05:00:18;7.90;;;1.70;;
68910;SDS011;55953;51.650;-0.522;2024-02-21T05:02:46;8.10;;;2.20;;
68910;SDS011;55953;51.650;-0.522;2024-02-21T05:05:14;7.60;;;2.20;;
68910;SDS011;55953;51.650;-0.522;2024-02-21T05:07:44;10.00;;;1.90;;
68910;SDS011;55953;51.650;-0.522;2024-02-21T05:10:12;8.30;;;2.10;;
68910;SDS011;55953;51.650;-0.522;2024-02-21T05:12:40;8.60;;;1.80;;
68910;SDS011;55953;51.650;-0.522;2024-02-21T05:15:08;7.30;;;1.40;;
68910;SDS011;55953;51.650;-0.522;2024-02-21T05:17:36;10.00;;;1.80;;
68910;SDS011;55953;51.650;-0.522;2024-02-21T05:20:05;7.40;;;1.90;;
68910;SDS011;55953;51.650;-0.522;2024-02-21T05:22:34;8.00;;;1.80;;
68910;SDS011;55953;51.650;-0.522;2024-02-21T05:25:01;9.30;;;1.80;;
68910;SDS011;55953;51.650;-0.522;2024-02-21T05:27:29;8.20;;;1.50;;
68910;SDS011;55953;51.650;-0.522;2024-02-21T05:29:57;9.10;;;1.90;;
68910;SDS011;55953;51.650;-0.522;2024-02-21T05:32:26;8.90;;;1.70;;
68910;SDS011;55953;51.650;-0.522;2024-02-21T05:34:54;7.40;;;1.60;;
68910;SDS011;55953;51.650;-0.522;2024-02-21T05:37:22;11.00;;;1.80;;
68910;SDS011;55953;51.650;-0.522;2024-02-21T05:39:50;6.00;;;1.50;;
68910;SDS011;55953;51.650;-0.522;2024-02-21T05:42:19;5.90;;;1.50;;
68910;SDS011;55953;51.650;-0.522;2024-02-21T05:44:46;9.50;;;1.80;;
68910;SDS011;55953;51.650;-0.522;2024-02-21T05:47:14;7.50;;;1.70;;
68910;SDS011;55953;51.650;-0.522;2024-02-21T05:49:43;8.10;;;1.40;;
68910;SDS011;55953;51.650;-0.522;2024-02-21T05:52:11;7.00;;;1.40;;
68910;SDS011;55953;51.650;-0.522;2024-02-21T05:54:39;6.50;;;1.50;;
68910;SDS011;55953;51.650;-0.522;2024-02-21T05:57:07;8.80;;;1.50;;
68910;SDS011;55953;51.650;-0.522;2024-02-21T05:59:37;7.60;;;1.50;;
68910;SDS011;55953;51.650;-0.522;2024-02-21T06:02:07;5.70;;;1.50;;
68910;SDS011;55953;51.650;-0.522;2024-02-21T06:04:36;8.80;;;1.60;;
68910;SDS011;55953;51.650;-0.522;2024-02-21T06:07:04;8.10;;;1.60;;
68910;SDS011;55953;51.650;-0.522;2024-02-21T06:09:32;7.50;;;1.80;;
68910;SDS011;55953;51.650;-0.522;2024-02-21T06:12:00;8.50;;;1.90;;
68910;SDS011;55953;51.650;-0.522;2024-02-21T06:14:28;5.10;;;1.50;;
68910;SDS011;55953;51.650;-0.522;2024-02-21T06:16:57;6.40;;;1.40;;
68910;SDS011;55953;51.650;-0.522;2024-02-21T06:19:25;8.20;;;1.80;;
68910;SDS011;55953;51.650;-0.522;2024-02-21T06:21:53;11.70;;;2.50;;
68910;SDS011;55953;51.650;-0.522;2024-02-21T06:24:21;9.80;;;1.90;;
68910;SDS011;55953;51.650;-0.522;2024-02-21T06:26:49;6.80;;;2.00;;
68910;SDS011;55953;51.650;-0.522;2024-02-21T06:29:17;6.60;;;1.80;;
68910;SDS011;55953;51.650;-0.522;2024-02-21T06:31:45;8.90;;;1.80;;
68910;SDS011;55953;51.650;-0.522;2024-02-21T06:34:13;6.50;;;1.40;;
68910;SDS011;55953;51.650;-0.522;2024-02-21T06:36:41;6.20;;;1.50;;
68910;SDS011;55953;51.650;-0.522;2024-02-21T06:39:09;11.80;;;1.70;;
68910;SDS011;55953;51.650;-0.522;2024-02-21T06:41:38;9.40;;;1.50;;
68910;SDS011;55953;51.650;-0.522;2024-02-21T06:44:07;6.20;;;1.30;;
68910;SDS011;55953;51.650;-0.522;2024-02-21T06:46:36;7.00;;;1.40;;
68910;SDS011;55953;51.650;-0.522;2024-02-21T06:49:04;7.80;;;1.60;;
68910;SDS011;55953;51.650;-0.522;2024-02-21T06:51:32;7.00;;;1.90;;
68910;SDS011;55953;51.650;-0.522;2024-02-21T06:54:00;8.10;;;1.70;;
68910;SDS011;55953;51.650;-0.522;2024-02-21T06:56:28;5.20;;;1.50;;
68910;SDS011;55953;51.650;-0.522;2024-02-21T06:58:57;7.10;;;1.50;;
68910;SDS011;55953;51.650;-0.522;2024-02-21T07:01:26;5.60;;;1.50;;
68910;SDS011;55953;51.650;-0.522;2024-02-21T07:03:54;4.30;;;1.40;;
68910;SDS011;55953;51.650;-0.522;2024-02-21T07:06:22;4.10;;;1.70;;
68910;SDS011;55953;51.650;-0.522;2024-02-21T07:08:50;7.80;;;1.40;;
68910;SDS011;55953;51.650;-0.522;2024-02-21T07:11:19;6.30;;;1.70;;
68910;SDS011;55953;51.650;-0.522;2024-02-21T07:13:47;5.00;;;1.30;;
68910;SDS011;55953;51.650;-0.522;2024-02-21T07:16:15;4.70;;;1.50;;
68910;SDS011;55953;51.650;-0.522;2024-02-21T07:18:43;5.80;;;1.80;;
68910;SDS011;55953;51.650;-0.522;2024-02-21T07:21:11;5.50;;;1.60;;
68910;SDS011;55953;51.650;-0.522;2024-02-21T07:23:43;6.30;;;1.40;;
68910;SDS011;55953;51.650;-0.522;2024-02-21T07:26:10;3.40;;;1.10;;
68910;SDS011;55953;51.650;-0.522;2024-02-21T07:28:38;5.80;;;1.70;;
68910;SDS011;55953;51.650;-0.522;2024-02-21T07:31:06;5.80;;;1.40;;
68910;SDS011;55953;51.650;-0.522;2024-02-21T07:33:34;3.70;;;1.40;;
68910;SDS011;55953;51.650;-0.522;2024-02-21T07:36:07;4.70;;;1.30;;
68910;SDS011;55953;51.650;-0.522;2024-02-21T07:38:37;4.10;;;1.20;;
68910;SDS011;55953;51.650;-0.522;2024-02-21T07:41:05;6.10;;;1.40;;
68910;SDS011;55953;51.650;-0.522;2024-02-21T07:43:33;3.60;;;1.40;;
68910;SDS011;55953;51.650;-0.522;2024-02-21T07:46:01;4.50;;;1.20;;
68910;SDS011;55953;51.650;-0.522;2024-02-21T07:48:29;4.50;;;1.30;;
68910;SDS011;55953;51.650;-0.522;2024-02-21T07:51:01;2.70;;;1.30;;
68910;SDS011;55953;51.650;-0.522;2024-02-21T07:53:29;4.00;;;1.60;;
68910;SDS011;55953;51.650;-0.522;2024-02-21T07:55:57;6.00;;;1.10;;
68910;SDS011;55953;51.650;-0.522;2024-02-21T07:58:25;5.10;;;1.70;;
68910;SDS011;55953;51.650;-0.522;2024-02-21T08:00:53;4.30;;;1.00;;
68910;SDS011;55953;51.650;-0.522;2024-02-21T08:03:21;2.70;;;1.30;;
68910;SDS011;55953;51.650;-0.522;2024-02-21T08:05:50;4.60;;;1.40;;
68910;SDS011;55953;51.650;-0.522;2024-02-21T08:08:18;8.40;;;1.60;;
68910;SDS011;55953;51.650;-0.522;2024-02-21T08:10:51;8.20;;;1.70;;
68910;SDS011;55953;51.650;-0.522;2024-02-21T08:15:48;5.30;;;1.30;;
68910;SDS011;55953;51.650;-0.522;2024-02-21T08:18:16;3.60;;;1.20;;
68910;SDS011;55953;51.650;-0.522;2024-02-21T08:20:44;4.60;;;1.40;;
68910;SDS011;55953;51.650;-0.522;2024-02-21T08:23:12;3.70;;;1.40;;
68910;SDS011;55953;51.650;-0.522;2024-02-21T08:25:40;3.60;;;1.30;;
68910;SDS011;55953;51.650;-0.522;2024-02-21T08:28:08;3.60;;;1.40;;
68910;SDS011;55953;51.650;-0.522;2024-02-21T08:30:36;7.20;;;1.30;;
68910;SDS011;55953;51.650;-0.522;2024-02-21T08:33:04;6.90;;;1.60;;
68910;SDS011;55953;51.650;-0.522;2024-02-21T08:35:32;5.60;;;1.40;;
68910;SDS011;55953;51.650;-0.522;2024-02-21T08:38:00;4.80;;;1.30;;
68910;SDS011;55953;51.650;-0.522;2024-02-21T08:40:28;4.20;;;1.60;;
68910;SDS011;55953;51.650;-0.522;2024-02-21T08:42:56;4.10;;;1.10;;
68910;SDS011;55953;51.650;-0.522;2024-02-21T08:45:24;3.30;;;1.20;;
68910;SDS011;55953;51.650;-0.522;2024-02-21T08:47:52;5.90;;;1.40;;
68910;SDS011;55953;51.650;-0.522;2024-02-21T08:50:20;7.40;;;1.10;;
68910;SDS011;55953;51.650;-0.522;2024-02-21T08:52:55;5.70;;;1.50;;
68910;SDS011;55953;51.650;-0.522;2024-02-21T08:55:24;4.40;;;1.20;;
68910;SDS011;55953;51.650;-0.522;2024-02-21T08:57:52;4.30;;;1.10;;
68910;SDS011;55953;51.650;-0.522;2024-02-21T09:00:20;3.50;;;1.00;;
68910;SDS011;55953;51.650;-0.522;2024-02-21T09:02:55;4.70;;;1.30;;
68910;SDS011;55953;51.650;-0.522;2024-02-21T09:05:26;2.50;;;1.10;;
68910;SDS011;55953;51.650;-0.522;2024-02-21T09:07:54;4.40;;;1.30;;
68910;SDS011;55953;51.650;-0.522;2024-02-21T09:10:22;4.10;;;1.00;;
68910;SDS011;55953;51.650;-0.522;2024-02-21T09:12:50;4.50;;;1.00;;
68910;SDS011;55953;51.650;-0.522;2024-02-21T09:15:18;1.60;;;0.90;;
68910;SDS011;55953;51.650;-0.522;2024-02-21T09:17:46;3.30;;;1.20;;
68910;SDS011;55953;51.650;-0.522;2024-02-21T09:20:14;3.40;;;0.80;;
68910;SDS011;55953;51.650;-0.522;2024-02-21T09:22:44;3.00;;;1.10;;
68910;SDS011;55953;51.650;-0.522;2024-02-21T09:25:12;2.70;;;1.20;;
68910;SDS011;55953;51.650;-0.522;2024-02-21T09:27:40;1.60;;;0.80;;
68910;SDS011;55953;51.650;-0.522;2024-02-21T09:30:09;3.20;;;0.70;;
68910;SDS011;55953;51.650;-0.522;2024-02-21T09:32:37;2.40;;;0.80;;
68910;SDS011;55953;51.650;-0.522;2024-02-21T09:35:06;3.60;;;0.90;;
68910;SDS011;55953;51.650;-0.522;2024-02-21T09:37:34;3.20;;;0.80;;
68910;SDS011;55953;51.650;-0.522;2024-02-21T09:40:02;1.50;;;0.70;;
68910;SDS011;55953;51.650;-0.522;2024-02-21T09:42:37;2.40;;;0.90;;
68910;SDS011;55953;51.650;-0.522;2024-02-21T09:45:22;1.50;;;0.80;;
68910;SDS011;55953;51.650;-0.522;2024-02-21T09:51:02;1.30;;;0.70;;
68910;SDS011;55953;51.650;-0.522;2024-02-21T09:53:32;1.30;;;0.90;;
68910;SDS011;55953;51.650;-0.522;2024-02-21T09:56:01;3.20;;;0.90;;
68910;SDS011;55953;51.650;-0.522;2024-02-21T09:58:31;3.60;;;0.90;;
68910;SDS011;55953;51.650;-0.522;2024-02-21T10:00:59;4.40;;;1.00;;
68910;SDS011;55953;51.650;-0.522;2024-02-21T10:03:30;2.70;;;0.80;;
68910;SDS011;55953;51.650;-0.522;2024-02-21T10:06:01;3.10;;;0.90;;
68910;SDS011;55953;51.650;-0.522;2024-02-21T10:08:28;3.60;;;0.80;;
68910;SDS011;55953;51.650;-0.522;2024-02-21T10:10:56;1.80;;;0.90;;
68910;SDS011;55953;51.650;-0.522;2024-02-21T10:13:29;2.50;;;1.00;;
68910;SDS011;55953;51.650;-0.522;2024-02-21T10:16:04;4.30;;;1.00;;
68910;SDS011;55953;51.650;-0.522;2024-02-21T10:18:34;4.60;;;0.90;;
68910;SDS011;55953;51.650;-0.522;2024-02-21T10:21:04;2.80;;;1.00;;
68910;SDS011;55953;51.650;-0.522;2024-02-21T10:26:18;3.70;;;0.80;;
68910;SDS011;55953;51.650;-0.522;2024-02-21T10:28:47;2.90;;;0.90;;
68910;SDS011;55953;51.650;-0.522;2024-02-21T10:31:26;1.30;;;0.70;;
68910;SDS011;55953;51.650;-0.522;2024-02-21T10:34:00;2.50;;;1.10;;
68910;SDS011;55953;51.650;-0.522;2024-02-21T10:36:31;2.70;;;1.00;;
68910;SDS011;55953;51.650;-0.522;2024-02-21T10:38:59;4.70;;;0.90;;
68910;SDS011;55953;51.650;-0.522;2024-02-21T10:41:28;3.00;;;0.80;;
68910;SDS011;55953;51.650;-0.522;2024-02-21T10:43:57;3.90;;;1.00;;
68910;SDS011;55953;51.650;-0.522;2024-02-21T10:46:27;2.70;;;1.10;;
68910;SDS011;55953;51.650;-0.522;2024-02-21T10:49:07;4.80;;;1.00;;
68910;SDS011;55953;51.650;-0.522;2024-02-21T10:52:17;1.70;;;0.80;;
68910;SDS011;55953;51.650;-0.522;2024-02-21T10:55:04;2.30;;;0.60;;
68910;SDS011;55953;51.650;-0.522;2024-02-21T10:57:38;3.00;;;0.70;;
68910;SDS011;55953;51.650;-0.522;2024-02-21T11:00:07;1.40;;;0.70;;
68910;SDS011;55953;51.650;-0.522;2024-02-21T11:02:40;2.40;;;0.90;;
68910;SDS011;55953;51.650;-0.522;2024-02-21T11:05:09;5.80;;;1.00;;
68910;SDS011;55953;51.650;-0.522;2024-02-21T11:07:37;3.10;;;0.90;;
68910;SDS011;55953;51.650;-0.522;2024-02-21T11:10:20;1.70;;;0.90;;
68910;SDS011;55953;51.650;-0.522;2024-02-21T11:13:07;2.80;;;0.80;;
68910;SDS011;55953;51.650;-0.522;2024-02-21T11:15:36;1.60;;;0.90;;
68910;SDS011;55953;51.650;-0.522;2024-02-21T11:18:05;4.10;;;0.70;;
68910;SDS011;55953;51.650;-0.522;2024-02-21T11:20:34;2.90;;;0.70;;
68910;SDS011;55953;51.650;-0.522;2024-02-21T11:23:03;1.90;;;0.70;;
68910;SDS011;55953;51.650;-0.522;2024-02-21T11:25:31;0.80;;;0.50;;
68910;SDS011;55953;51.650;-0.522;2024-02-21T11:28:02;1.40;;;0.70;;
68910;SDS011;55953;51.650;-0.522;2024-02-21T11:30:31;2.20;;;0.80;;
68910;SDS011;55953;51.650;-0.522;2024-02-21T11:33:01;1.40;;;0.60;;
68910;SDS011;55953;51.650;-0.522;2024-02-21T11:35:32;2.70;;;0.70;;
68910;SDS011;55953;51.650;-0.522;2024-02-21T11:38:13;2.20;;;0.70;;
68910;SDS011;55953;51.650;-0.522;2024-02-21T11:40:46;2.00;;;0.70;;
68910;SDS011;55953;51.650;-0.522;2024-02-21T11:43:15;0.90;;;0.70;;
68910;SDS011;55953;51.650;-0.522;2024-02-21T11:45:44;1.70;;;0.90;;
68910;SDS011;55953;51.650;-0.522;2024-02-21T11:48:12;2.50;;;0.90;;
68910;SDS011;55953;51.650;-0.522;2024-02-21T11:50:40;2.10;;;0.90;;
68910;SDS011;55953;51.650;-0.522;2024-02-21T11:53:09;0.60;;;0.60;;
68910;SDS011;55953;51.650;-0.522;2024-02-21T11:55:37;2.30;;;0.90;;
68910;SDS011;55953;51.650;-0.522;2024-02-21T11:58:05;1.90;;;0.90;;
68910;SDS011;55953;51.650;-0.522;2024-02-21T12:00:33;2.40;;;0.70;;
68910;SDS011;55953;51.650;-0.522;2024-02-21T12:03:01;1.60;;;0.70;;
68910;SDS011;55953;51.650;-0.522;2024-02-21T12:05:31;1.20;;;0.60;;
68910;SDS011;55953;51.650;-0.522;2024-02-21T12:08:00;0.90;;;0.50;;
68910;SDS011;55953;51.650;-0.522;2024-02-21T12:10:28;1.60;;;0.70;;
68910;SDS011;55953;51.650;-0.522;2024-02-21T12:13:08;1.80;;;0.50;;
68910;SDS011;55953;51.650;-0.522;2024-02-21T12:15:40;1.30;;;0.70;;
68910;SDS011;55953;51.650;-0.522;2024-02-21T12:20:38;1.00;;;0.60;;
68910;SDS011;55953;51.650;-0.522;2024-02-21T12:23:09;1.30;;;0.40;;
68910;SDS011;55953;51.650;-0.522;2024-02-21T12:25:38;0.80;;;0.50;;
68910;SDS011;55953;51.650;-0.522;2024-02-21T12:28:07;1.30;;;0.50;;
68910;SDS011;55953;51.650;-0.522;2024-02-21T12:30:35;1.10;;;0.60;;
68910;SDS011;55953;51.650;-0.522;2024-02-21T12:33:07;1.20;;;0.60;;
68910;SDS011;55953;51.650;-0.522;2024-02-21T12:35:35;0.90;;;0.60;;
68910;SDS011;55953;51.650;-0.522;2024-02-21T12:38:03;0.40;;;0.40;;
68910;SDS011;55953;51.650;-0.522;2024-02-21T12:40:31;1.10;;;0.60;;
68910;SDS011;55953;51.650;-0.522;2024-02-21T12:43:00;1.40;;;0.50;;
68910;SDS011;55953;51.650;-0.522;2024-02-21T12:48:01;2.10;;;0.50;;
68910;SDS011;55953;51.650;-0.522;2024-02-21T12:50:29;1.80;;;0.50;;
68910;SDS011;55953;51.650;-0.522;2024-02-21T12:52:58;1.70;;;0.50;;
68910;SDS011;55953;51.650;-0.522;2024-02-21T12:55:27;1.50;;;0.50;;
68910;SDS011;55953;51.650;-0.522;2024-02-21T12:57:55;2.60;;;0.60;;
68910;SDS011;55953;51.650;-0.522;2024-02-21T13:00:22;2.10;;;0.70;;
68910;SDS011;55953;51.650;-0.522;2024-02-21T13:02:57;1.70;;;0.70;;
68910;SDS011;55953;51.650;-0.522;2024-02-21T13:05:25;0.50;;;0.40;;
68910;SDS011;55953;51.650;-0.522;2024-02-21T13:07:53;1.30;;;0.60;;
68910;SDS011;55953;51.650;-0.522;2024-02-21T13:10:22;0.50;;;0.50;;
68910;SDS011;55953;51.650;-0.522;2024-02-21T13:12:49;1.00;;;0.60;;
68910;SDS011;55953;51.650;-0.522;2024-02-21T13:15:18;1.30;;;0.70;;
68910;SDS011;55953;51.650;-0.522;2024-02-21T13:17:46;2.20;;;0.50;;
68910;SDS011;55953;51.650;-0.522;2024-02-21T13:20:14;0.30;;;0.30;;
68910;SDS011;55953;51.650;-0.522;2024-02-21T13:22:43;0.40;;;0.40;;
68910;SDS011;55953;51.650;-0.522;2024-02-21T13:25:11;2.60;;;0.70;;
68910;SDS011;55953;51.650;-0.522;2024-02-21T13:27:44;1.10;;;0.40;;
68910;SDS011;55953;51.650;-0.522;2024-02-21T13:30:12;1.10;;;0.60;;
68910;SDS011;55953;51.650;-0.522;2024-02-21T13:32:43;0.80;;;0.70;;
68910;SDS011;55953;51.650;-0.522;2024-02-21T13:35:14;2.20;;;0.60;;
68910;SDS011;55953;51.650;-0.522;2024-02-21T13:37:43;2.70;;;0.80;;
68910;SDS011;55953;51.650;-0.522;2024-02-21T13:40:11;0.60;;;0.40;;
68910;SDS011;55953;51.650;-0.522;2024-02-21T13:42:41;1.20;;;0.50;;
68910;SDS011;55953;51.650;-0.522;2024-02-21T13:45:09;1.50;;;0.60;;
68910;SDS011;55953;51.650;-0.522;2024-02-21T13:47:37;0.90;;;0.50;;
68910;SDS011;55953;51.650;-0.522;2024-02-21T13:50:07;0.70;;;0.50;;
68910;SDS011;55953;51.650;-0.522;2024-02-21T13:52:39;1.20;;;0.70;;
68910;SDS011;55953;51.650;-0.522;2024-02-21T13:55:10;1.10;;;0.60;;
68910;SDS011;55953;51.650;-0.522;2024-02-21T13:57:38;2.40;;;0.80;;
68910;SDS011;55953;51.650;-0.522;2024-02-21T14:00:07;3.10;;;1.00;;
68910;SDS011;55953;51.650;-0.522;2024-02-21T14:02:41;1.10;;;0.50;;
68910;SDS011;55953;51.650;-0.522;2024-02-21T14:05:09;1.50;;;0.50;;
68910;SDS011;55953;51.650;-0.522;2024-02-21T14:07:38;1.10;;;0.70;;
68910;SDS011;55953;51.650;-0.522;2024-02-21T14:10:07;1.80;;;0.50;;
68910;SDS011;55953;51.650;-0.522;2024-02-21T14:12:37;0.90;;;0.50;;
68910;SDS011;55953;51.650;-0.522;2024-02-21T14:15:06;3.00;;;0.60;;
68910;SDS011;55953;51.650;-0.522;2024-02-21T14:17:34;2.90;;;0.60;;
68910;SDS011;55953;51.650;-0.522;2024-02-21T14:20:02;1.60;;;0.60;;
68910;SDS011;55953;51.650;-0.522;2024-02-21T14:22:32;1.90;;;0.80;;
68910;SDS011;55953;51.650;-0.522;2024-02-21T14:25:02;1.40;;;0.80;;
68910;SDS011;55953;51.650;-0.522;2024-02-21T14:27:30;8.50;;;1.30;;
68910;SDS011;55953;51.650;-0.522;2024-02-21T14:29:58;7.00;;;1.40;;
68910;SDS011;55953;51.650;-0.522;2024-02-21T14:32:26;7.70;;;0.90;;
68910;SDS011;55953;51.650;-0.522;2024-02-21T14:34:55;2.30;;;0.90;;
68910;SDS011;55953;51.650;-0.522;2024-02-21T14:37:23;2.10;;;0.70;;
68910;SDS011;55953;51.650;-0.522;2024-02-21T14:39:51;4.10;;;1.00;;
68910;SDS011;55953;51.650;-0.522;2024-02-21T14:42:19;1.60;;;0.60;;
68910;SDS011;55953;51.650;-0.522;2024-02-21T14:44:47;1.60;;;0.60;;
68910;SDS011;55953;51.650;-0.522;2024-02-21T14:47:14;3.90;;;0.80;;
68910;SDS011;55953;51.650;-0.522;2024-02-21T14:49:42;2.50;;;0.80;;
68910;SDS011;55953;51.650;-0.522;2024-02-21T14:52:11;3.80;;;1.00;;
68910;SDS011;55953;51.650;-0.522;2024-02-21T14:54:39;2.80;;;0.70;;
68910;SDS011;55953;51.650;-0.522;2024-02-21T14:59:40;1.80;;;0.60;;